Time;durP1;ratioP1;P1;durP2;ratioP2;P2;SDS_P1;SDS_P2;PMS_P1;PMS_P2;Temp;Humidity;BMP_temperature;BMP_pressure;BME280_temperature;BME280_humidity;BME280_pressure;Samples;Min_cycle;Max_cycle;Signal;HPM_P1;HPM_P2
2023/03/28 00:01:30;;;;;;;3.63;1.90;;;1.80;99.90;;;;;;5054769;28;20243;-82
2023/03/28 00:03:56;;;;;;;3.23;1.93;;;1.80;99.90;;;;;;5054866;28;20176;-83
2023/03/28 00:06:23;;;;;;;3.40;2.10;;;1.70;99.90;;;;;;5055471;28;20171;-83
2023/03/28 00:08:50;;;;;;;2.67;1.90;;;1.70;99.90;;;;;;5055228;28;20185;-82
2023/03/28 00:11:18;;;;;;;3.40;1.80;;;1.80;99.90;;;;;;5036861;28;20202;-82
2023/03/28 00:13:59;;;;;;;4.00;2.00;;;1.80;99.90;;;;;;5036840;28;20222;-82
2023/03/28 00:16:37;;;;;;;4.67;1.90;;;1.90;99.90;;;;;;5055576;28;20194;-82
2023/03/28 00:19:08;;;;;;;2.67;1.80;;;1.90;99.90;;;;;;5055835;28;20213;-82
2023/03/28 00:21:36;;;;;;;2.23;1.47;;;2.00;99.90;;;;;;5055244;28;20250;-82
2023/03/28 00:24:05;;;;;;;4.17;2.10;;;2.00;99.90;;;;;;5055520;28;20211;-82
2023/03/28 00:26:33;;;;;;;3.40;2.10;;;2.10;99.90;;;;;;5056608;28;20263;-82
2023/03/28 00:29:00;;;;;;;4.30;2.20;;;2.10;99.90;;;;;;5037887;28;20557;-82
2023/03/28 00:31:26;;;;;;;3.33;2.00;;;2.10;99.90;;;;;;5055350;28;20191;-82
2023/03/28 00:33:52;;;;;;;5.80;2.27;;;2.10;99.90;;;;;;5038237;28;20182;-82
2023/03/28 00:36:25;;;;;;;2.77;1.83;;;2.00;99.90;;;;;;5056787;28;20174;-82
2023/03/28 00:38:57;;;;;;;2.57;1.70;;;2.00;99.90;;;;;;5038414;28;20210;-82
2023/03/28 00:41:25;;;;;;;3.40;2.10;;;2.00;99.90;;;;;;5056083;28;20197;-82
2023/03/28 00:43:54;;;;;;;3.17;2.00;;;2.00;99.90;;;;;;5056575;28;20169;-82
2023/03/28 00:46:37;;;;;;;4.37;1.90;;;2.00;99.90;;;;;;5038799;28;20171;-83
2023/03/28 00:49:14;;;;;;;3.13;1.90;;;2.10;99.90;;;;;;5038771;28;20206;-82
2023/03/28 00:51:46;;;;;;;4.30;1.93;;;2.00;99.90;;;;;;5055256;28;20216;-82
2023/03/28 00:54:16;;;;;;;3.67;2.20;;;1.90;99.90;;;;;;5039511;28;20198;-82
2023/03/28 00:56:46;;;;;;;2.43;1.70;;;1.90;99.90;;;;;;5057579;28;20250;-82
2023/03/28 00:59:17;;;;;;;4.03;2.03;;;1.90;99.90;;;;;;5039155;28;20218;-82
2023/03/28 01:01:43;;;;;;;2.97;1.97;;;1.90;99.90;;;;;;5057238;28;20741;-82
2023/03/28 01:04:09;;;;;;;3.30;2.03;;;1.90;99.90;;;;;;5041368;28;20225;-82
2023/03/28 01:06:45;;;;;;;3.73;1.90;;;1.90;99.90;;;;;;5037599;28;20270;-81
2023/03/28 01:09:12;;;;;;;2.27;1.70;;;1.90;99.90;;;;;;5034858;28;20171;-81
2023/03/28 01:11:40;;;;;;;3.80;1.97;;;1.90;99.90;;;;;;5052280;28;20199;-81
2023/03/28 01:14:12;;;;;;;3.73;1.90;;;1.90;99.90;;;;;;5035274;28;20179;-82
2023/03/28 01:16:40;;;;;;;3.10;1.90;;;1.90;99.90;;;;;;5052879;28;20195;-82
2023/03/28 01:19:20;;;;;;;6.80;2.20;;;1.80;99.90;;;;;;5034471;28;20207;-82
2023/03/28 01:22:07;;;;;;;2.47;2.03;;;1.80;99.90;;;;;;5052111;28;20250;-81
2023/03/28 01:24:49;;;;;;;3.00;2.00;;;1.80;99.90;;;;;;5054215;28;20160;-81
2023/03/28 01:27:22;;;;;;;3.03;1.80;;;1.70;99.90;;;;;;5038585;28;20177;-82
2023/03/28 01:30:12;;;;;;;5.33;2.50;;;1.80;99.90;;;;;;5038298;28;20172;-80
2023/03/28 01:33:34;;;;;;;3.80;2.23;;;1.80;99.90;;;;;;5038389;28;20191;-81
2023/03/28 01:36:00;;;;;;;5.50;3.37;;;1.80;99.90;;;;;;4959365;28;20181;-82
2023/03/28 01:38:35;;;;;;;3.87;2.43;;;1.80;99.90;;;;;;4975331;28;20209;-81
2023/03/28 01:41:34;;;;;;;5.13;2.63;;;1.80;99.90;;;;;;5000680;28;20203;-81
2023/03/28 01:44:22;;;;;;;4.23;2.17;;;1.80;99.90;;;;;;5056612;28;20692;-81
2023/03/28 01:46:53;;;;;;;2.80;2.20;;;1.80;99.90;;;;;;5038232;28;20664;-81
2023/03/28 01:49:54;;;;;;;3.70;1.93;;;1.80;99.90;;;;;;5038220;28;20185;-82
2023/03/28 01:52:30;;;;;;;3.53;2.00;;;1.80;99.90;;;;;;5046515;28;20601;-82
2023/03/28 01:55:04;;;;;;;4.93;1.80;;;1.80;99.90;;;;;;5056515;28;20239;-81
2023/03/28 01:57:43;;;;;;;3.03;1.80;;;1.70;99.90;;;;;;5038329;28;20228;-82
2023/03/28 02:00:18;;;;;;;3.87;2.10;;;1.70;99.90;;;;;;5037975;28;20235;-82
2023/03/28 02:02:55;;;;;;;3.30;2.10;;;1.80;99.90;;;;;;5038587;28;20234;-81
2023/03/28 02:05:22;;;;;;;3.03;1.70;;;1.80;99.90;;;;;;5038463;28;20549;-81
2023/03/28 02:07:50;;;;;;;4.73;2.00;;;1.80;99.90;;;;;;5056476;28;20212;-82
2023/03/28 02:10:21;;;;;;;4.70;1.90;;;1.90;99.90;;;;;;5037526;28;20234;-81
2023/03/28 02:13:15;;;;;;;4.97;2.03;;;1.90;99.90;;;;;;5037814;28;20286;-82
2023/03/28 02:15:44;;;;;;;4.70;1.60;;;1.80;99.90;;;;;;5052386;28;20190;-82
2023/03/28 02:18:16;;;;;;;4.83;2.03;;;1.80;99.90;;;;;;5038208;28;20214;-81
2023/03/28 02:20:44;;;;;;;2.27;1.63;;;1.70;99.90;;;;;;5037720;28;20176;-81
2023/03/28 02:23:17;;;;;;;4.40;1.70;;;1.80;99.90;;;;;;5038065;28;20178;-82
2023/03/28 02:25:42;;;;;;;2.27;1.53;;;1.80;99.90;;;;;;5038382;28;20175;-81
2023/03/28 02:28:10;;;;;;;1.83;1.50;;;1.70;99.90;;;;;;5038032;28;20176;-81
2023/03/28 02:30:36;;;;;;;3.10;1.80;;;1.60;99.90;;;;;;5055536;28;20727;-81
2023/03/28 02:33:07;;;;;;;3.10;1.60;;;1.60;99.90;;;;;;5055744;28;20267;-82
2023/03/28 02:35:59;;;;;;;3.37;1.43;;;1.60;99.90;;;;;;5056046;28;20165;-82
2023/03/28 02:38:48;;;;;;;3.50;1.63;;;1.50;99.90;;;;;;5056211;28;20194;-81
2023/03/28 02:41:32;;;;;;;2.77;1.77;;;1.60;99.90;;;;;;5044526;28;20202;-81
2023/03/28 02:44:09;;;;;;;3.83;1.97;;;1.60;99.90;;;;;;5056424;28;20502;-81
2023/03/28 02:46:59;;;;;;;5.07;1.90;;;1.60;99.90;;;;;;5037879;28;20173;-82
2023/03/28 02:49:24;;;;;;;4.50;1.70;;;1.70;99.90;;;;;;5056509;28;20173;-82
2023/03/28 02:52:09;;;;;;;5.03;1.83;;;1.60;99.90;;;;;;5043487;22;20224;-86
2023/03/28 02:55:11;;;;;;;2.93;2.03;;;1.70;99.90;;;;;;5014829;28;20171;-86
2023/03/28 02:57:56;;;;;;;3.10;2.03;;;1.60;99.90;;;;;;5006827;28;20597;-85
2023/03/28 03:00:22;;;;;;;7.17;2.40;;;1.60;99.90;;;;;;5014164;28;20603;-85
2023/03/28 03:02:50;;;;;;;4.63;2.73;;;1.50;99.90;;;;;;5027813;28;20347;-85
2023/03/28 03:05:18;;;;;;;6.03;2.30;;;1.50;99.90;;;;;;5034434;28;20213;-86
2023/03/28 03:07:44;;;;;;;4.37;2.93;;;1.50;99.90;;;;;;5032941;28;20181;-85
2023/03/28 03:10:13;;;;;;;4.10;2.37;;;1.60;99.90;;;;;;5033627;28;20170;-85
2023/03/28 03:12:39;;;;;;;5.00;2.80;;;1.50;99.90;;;;;;5026705;28;20273;-86
2023/03/28 03:15:06;;;;;;;5.17;2.70;;;1.50;99.90;;;;;;5034305;28;20186;-86
2023/03/28 03:17:32;;;;;;;3.23;2.40;;;1.40;99.90;;;;;;5048925;28;20231;-85
2023/03/28 03:19:58;;;;;;;4.60;2.37;;;1.50;99.90;;;;;;5049055;28;20198;-86
2023/03/28 03:22:24;;;;;;;6.07;2.10;;;1.60;99.90;;;;;;5027783;28;20282;-86
2023/03/28 03:24:49;;;;;;;3.87;1.90;;;1.50;99.90;;;;;;5048910;28;20634;-85
2023/03/28 03:27:19;;;;;;;4.10;2.67;;;1.60;99.90;;;;;;5032630;28;20181;-85
2023/03/28 03:29:45;;;;;;;4.50;2.40;;;1.60;99.90;;;;;;5048646;28;20175;-86
2023/03/28 03:32:11;;;;;;;5.67;2.60;;;1.50;99.90;;;;;;5049240;28;20194;-85
2023/03/28 03:34:40;;;;;;;5.57;2.27;;;1.50;99.90;;;;;;5033776;28;20217;-85
2023/03/28 03:37:07;;;;;;;6.10;2.20;;;1.50;99.90;;;;;;5049078;28;20257;-85
2023/03/28 03:39:34;;;;;;;3.67;2.00;;;1.50;99.90;;;;;;5048971;28;20166;-85
2023/03/28 03:42:01;;;;;;;3.73;2.10;;;1.50;99.90;;;;;;5033360;28;20191;-85
2023/03/28 03:44:26;;;;;;;4.57;1.93;;;1.60;99.90;;;;;;5049208;28;20233;-85
2023/03/28 03:46:52;;;;;;;7.33;2.17;;;1.60;99.90;;;;;;5048350;28;20240;-86
2023/03/28 03:49:17;;;;;;;6.07;2.20;;;1.70;99.90;;;;;;5048820;28;20170;-85
2023/03/28 03:51:43;;;;;;;4.50;2.50;;;1.60;99.90;;;;;;5048177;28;20218;-86
2023/03/28 03:54:10;;;;;;;3.47;1.93;;;1.50;99.90;;;;;;5048741;28;20181;-85
2023/03/28 03:56:36;;;;;;;5.10;2.27;;;1.40;99.90;;;;;;5048589;28;20186;-85
2023/03/28 03:59:01;;;;;;;6.40;2.20;;;1.50;99.90;;;;;;5048455;28;20199;-85
2023/03/28 04:01:28;;;;;;;6.00;2.40;;;1.50;99.90;;;;;;5047531;28;20210;-85
2023/03/28 04:03:55;;;;;;;6.93;2.77;;;1.40;99.90;;;;;;5048549;28;20175;-86
2023/03/28 04:06:21;;;;;;;4.10;2.47;;;1.40;99.90;;;;;;5031757;28;20178;-85
2023/03/28 04:08:46;;;;;;;4.83;2.57;;;1.30;99.90;;;;;;5033065;28;20539;-85
2023/03/28 04:11:12;;;;;;;5.63;2.60;;;1.30;99.90;;;;;;5032660;28;20179;-86
2023/03/28 04:13:37;;;;;;;6.00;2.13;;;1.20;99.90;;;;;;5048343;28;20178;-85
2023/03/28 04:16:04;;;;;;;6.43;2.80;;;1.10;99.90;;;;;;5048023;28;20183;-85
2023/03/28 04:18:29;;;;;;;4.37;2.40;;;1.10;99.90;;;;;;5032706;28;20210;-86
2023/03/28 04:20:57;;;;;;;4.57;2.57;;;1.10;99.90;;;;;;5047997;28;20265;-85
2023/03/28 04:23:24;;;;;;;4.30;2.70;;;1.00;99.90;;;;;;5047928;28;20221;-85
2023/03/28 04:25:54;;;;;;;4.57;3.00;;;0.90;99.90;;;;;;5048046;28;20182;-86
2023/03/28 04:28:24;;;;;;;4.47;2.33;;;0.90;99.90;;;;;;5032778;28;20182;-85
2023/03/28 04:30:56;;;;;;;3.30;2.30;;;0.90;99.90;;;;;;5047731;28;20201;-85
2023/03/28 04:33:24;;;;;;;5.33;3.03;;;0.90;99.90;;;;;;5032820;28;20198;-85
2023/03/28 04:36:00;;;;;;;7.20;2.90;;;0.90;99.90;;;;;;5048038;28;20204;-86
2023/03/28 04:38:27;;;;;;;7.07;2.93;;;0.80;99.90;;;;;;5032585;28;20281;-85
2023/03/28 04:40:56;;;;;;;6.97;2.83;;;0.80;99.90;;;;;;5032058;28;20182;-85
2023/03/28 04:43:26;;;;;;;4.40;3.00;;;0.80;99.90;;;;;;5032504;28;20210;-85
2023/03/28 04:45:52;;;;;;;4.43;2.70;;;0.80;99.90;;;;;;5032742;28;20697;-85
2023/03/28 04:48:18;;;;;;;6.30;2.43;;;0.80;99.90;;;;;;5047802;28;20177;-85
2023/03/28 04:50:44;;;;;;;5.83;2.77;;;0.90;99.90;;;;;;5032331;28;20257;-85
2023/03/28 04:53:11;;;;;;;5.70;2.80;;;0.90;99.90;;;;;;5047876;28;20300;-85
2023/03/28 04:55:37;;;;;;;4.43;2.53;;;0.90;99.90;;;;;;5032444;28;20182;-85
2023/03/28 04:58:03;;;;;;;5.67;2.40;;;1.00;99.90;;;;;;5047775;28;20213;-87
2023/03/28 05:00:29;;;;;;;6.30;2.60;;;1.00;99.90;;;;;;5035232;28;20213;-83
2023/03/28 05:02:55;;;;;;;6.57;2.63;;;1.00;99.90;;;;;;5051980;28;20581;-82
2023/03/28 05:05:21;;;;;;;5.07;2.30;;;1.00;99.90;;;;;;5036858;28;20179;-82
2023/03/28 05:07:47;;;;;;;8.60;3.13;;;1.00;99.90;;;;;;5036600;28;20244;-80
2023/03/28 05:10:12;;;;;;;5.77;2.30;;;1.10;99.90;;;;;;5035840;28;20550;-82
2023/03/28 05:12:38;;;;;;;3.73;2.20;;;1.40;99.90;;;;;;5035376;28;20289;-79
2023/03/28 05:15:05;;;;;;;6.73;2.63;;;1.80;99.90;;;;;;5034787;28;20209;-82
2023/03/28 05:17:31;;;;;;;7.53;2.50;;;2.50;99.90;;;;;;5035143;28;20198;-81
2023/03/28 05:19:57;;;;;;;5.37;2.40;;;3.10;99.90;;;;;;5035743;28;20179;-81
2023/03/28 05:22:22;;;;;;;5.83;2.37;;;2.90;99.90;;;;;;5035528;28;20282;-82
2023/03/28 05:24:48;;;;;;;5.27;2.70;;;2.50;99.90;;;;;;5035730;28;20626;-82
2023/03/28 05:27:13;;;;;;;4.43;2.50;;;2.00;99.90;;;;;;5035488;28;20179;-81
2023/03/28 05:29:39;;;;;;;6.33;3.10;;;1.80;99.90;;;;;;5035323;28;20626;-81
2023/03/28 05:32:05;;;;;;;6.23;3.20;;;1.50;99.90;;;;;;5035540;28;20195;-81
2023/03/28 05:34:33;;;;;;;7.23;3.00;;;1.40;99.90;;;;;;5035081;28;20195;-81
2023/03/28 05:36:59;;;;;;;3.77;2.70;;;1.40;99.90;;;;;;5034910;28;20175;-82
2023/03/28 05:39:25;;;;;;;6.87;2.80;;;1.40;99.90;;;;;;5034050;28;20209;-82
2023/03/28 05:41:50;;;;;;;8.87;2.73;;;1.30;99.90;;;;;;5035359;28;20469;-79
2023/03/28 05:44:16;;;;;;;4.00;2.53;;;1.30;99.90;;;;;;5034370;28;20175;-82
2023/03/28 05:46:41;;;;;;;6.67;3.00;;;1.30;99.90;;;;;;5034340;28;20228;-82
2023/03/28 05:49:07;;;;;;;5.40;2.60;;;1.30;99.90;;;;;;5033953;28;20179;-82
2023/03/28 05:51:33;;;;;;;6.40;2.77;;;1.30;99.90;;;;;;5033127;28;20705;-81
2023/03/28 05:53:59;;;;;;;9.63;2.90;;;1.30;99.90;;;;;;5035234;28;20177;-81
2023/03/28 05:56:24;;;;;;;5.17;2.83;;;1.30;99.90;;;;;;5035223;28;20175;-81
2023/03/28 05:58:50;;;;;;;8.50;3.13;;;1.10;99.90;;;;;;5034864;28;20230;-80
2023/03/28 06:01:22;;;;;;;6.63;2.87;;;1.20;99.90;;;;;;5034381;28;20270;-81
2023/03/28 06:03:48;;;;;;;5.27;2.60;;;1.20;99.90;;;;;;5036541;28;20175;-82
2023/03/28 06:06:14;;;;;;;9.13;2.87;;;1.20;99.90;;;;;;5033605;28;20178;-82
2023/03/28 06:08:40;;;;;;;5.20;3.00;;;1.10;99.90;;;;;;5032843;28;20182;-82
2023/03/28 06:11:06;;;;;;;6.53;3.27;;;1.20;99.90;;;;;;5027296;28;20175;-82
2023/03/28 06:13:32;;;;;;;6.23;2.63;;;1.20;99.90;;;;;;5034742;28;20257;-85
2023/03/28 06:15:58;;;;;;;8.27;2.33;;;1.20;99.90;;;;;;5034635;28;20258;-82
2023/03/28 06:18:24;;;;;;;4.80;2.23;;;1.30;99.90;;;;;;5050199;28;20198;-82
2023/03/28 06:20:50;;;;;;;4.47;1.97;;;1.40;99.90;;;;;;5049211;28;20174;-82
2023/03/28 06:23:15;;;;;;;5.67;2.00;;;1.60;99.90;;;;;;5050223;28;20199;-82
2023/03/28 06:25:42;;;;;;;6.87;1.90;;;1.60;99.90;;;;;;5049780;28;20651;-82
2023/03/28 06:28:07;;;;;;;8.73;2.03;;;1.70;99.90;;;;;;5049458;28;20301;-82
2023/03/28 06:30:33;;;;;;;7.67;2.00;;;1.70;99.90;;;;;;5033841;28;20601;-84
2023/03/28 06:32:59;;;;;;;5.47;2.33;;;1.80;99.90;;;;;;5049609;28;20198;-83
2023/03/28 06:35:24;;;;;;;7.30;3.27;;;1.80;99.90;;;;;;5034121;28;20181;-83
2023/03/28 06:37:50;;;;;;;5.23;2.10;;;1.80;99.90;;;;;;5034335;28;20280;-82
2023/03/28 06:40:15;;;;;;;6.00;2.50;;;1.80;99.90;;;;;;5034210;28;20171;-82
2023/03/28 06:42:42;;;;;;;5.43;2.53;;;1.70;99.90;;;;;;5048374;28;20220;-82
2023/03/28 06:45:08;;;;;;;8.57;2.70;;;1.60;99.90;;;;;;5034323;28;20365;-86
2023/03/28 06:47:34;;;;;;;6.37;2.47;;;1.60;99.90;;;;;;5033849;28;20181;-83
2023/03/28 06:49:59;;;;;;;4.47;2.30;;;1.60;99.90;;;;;;5049169;28;20178;-82
2023/03/28 06:52:25;;;;;;;6.47;2.80;;;1.70;99.90;;;;;;5033995;28;20256;-82
2023/03/28 06:54:51;;;;;;;8.63;2.50;;;1.80;99.90;;;;;;5034239;28;20178;-82
2023/03/28 06:57:16;;;;;;;6.90;2.57;;;1.70;99.90;;;;;;5049395;28;20174;-83
2023/03/28 06:59:42;;;;;;;6.70;3.20;;;1.70;99.90;;;;;;5033422;28;20167;-85
2023/03/28 07:02:10;;;;;;;5.37;2.30;;;1.80;99.90;;;;;;5048939;28;20194;-82
2023/03/28 07:04:35;;;;;;;5.77;2.37;;;1.90;99.90;;;;;;5033425;28;20205;-82
2023/03/28 07:07:01;;;;;;;6.17;2.70;;;1.90;99.90;;;;;;5049258;28;20217;-82
2023/03/28 07:09:27;;;;;;;5.80;2.50;;;1.90;99.90;;;;;;5033613;28;20166;-83
2023/03/28 07:11:52;;;;;;;6.50;2.37;;;1.90;99.90;;;;;;5048256;28;20202;-83
2023/03/28 07:14:18;;;;;;;7.23;2.80;;;1.80;99.90;;;;;;5033406;28;20175;-83
2023/03/28 07:16:43;;;;;;;3.53;2.30;;;1.80;99.90;;;;;;5048810;28;20261;-83
2023/03/28 07:19:09;;;;;;;5.20;2.33;;;1.90;99.90;;;;;;5033183;28;20208;-85
2023/03/28 07:21:35;;;;;;;7.63;2.70;;;1.90;99.90;;;;;;5032133;28;20218;-85
2023/03/28 07:24:00;;;;;;;7.00;2.43;;;1.90;99.90;;;;;;5048568;28;20225;-83
2023/03/28 07:26:26;;;;;;;8.73;3.10;;;1.90;99.90;;;;;;5048721;28;20660;-83
2023/03/28 07:28:55;;;;;;;7.33;2.70;;;2.00;99.90;;;;;;5048723;28;20269;-83
2023/03/28 07:31:23;;;;;;;5.17;2.67;;;2.00;99.90;;;;;;5032661;28;20224;-83
2023/03/28 07:33:49;;;;;;;6.47;2.50;;;2.10;99.90;;;;;;5032827;28;20257;-82
2023/03/28 07:36:20;;;;;;;8.50;2.90;;;2.10;99.90;;;;;;5048738;28;20265;-83
2023/03/28 07:38:46;;;;;;;5.53;2.60;;;2.10;99.90;;;;;;5033023;28;20288;-84
2023/03/28 07:41:12;;;;;;;9.50;2.60;;;2.10;99.90;;;;;;5048039;28;20202;-85
2023/03/28 07:43:38;;;;;;;5.53;2.57;;;2.20;99.90;;;;;;5031676;28;20609;-83
2023/03/28 07:46:07;;;;;;;6.70;2.50;;;2.30;99.90;;;;;;5032777;28;20610;-84
2023/03/28 07:48:34;;;;;;;8.43;2.80;;;2.40;99.90;;;;;;5048403;28;20174;-83
2023/03/28 07:51:00;;;;;;;7.40;2.70;;;2.50;99.90;;;;;;5032423;28;20183;-83
2023/03/28 07:53:26;;;;;;;7.93;2.60;;;2.60;99.90;;;;;;5048474;28;20293;-83
2023/03/28 07:55:52;;;;;;;4.27;2.40;;;2.70;99.90;;;;;;5032803;28;20182;-83
2023/03/28 07:58:17;;;;;;;8.07;2.83;;;2.90;99.90;;;;;;5032515;28;20688;-83
2023/03/28 08:00:44;;;;;;;7.50;2.10;;;3.00;99.90;;;;;;5047650;28;20225;-83
2023/03/28 08:03:13;;;;;;;7.40;2.50;;;3.20;99.90;;;;;;5048117;28;20721;-83
2023/03/28 08:05:39;;;;;;;4.30;2.07;;;3.40;99.90;;;;;;5047963;28;20178;-83
2023/03/28 08:08:06;;;;;;;4.87;2.43;;;3.50;99.90;;;;;;5047955;28;20271;-83
2023/03/28 08:10:32;;;;;;;5.07;2.00;;;3.50;99.90;;;;;;5047679;28;20233;-83
2023/03/28 08:12:58;;;;;;;8.13;2.30;;;3.50;99.90;;;;;;5032439;28;20200;-83
2023/03/28 08:15:24;;;;;;;8.10;2.53;;;3.60;99.90;;;;;;5032657;28;20647;-83
2023/03/28 08:17:49;;;;;;;5.30;1.50;;;3.80;99.90;;;;;;5032454;28;20199;-84
2023/03/28 08:20:15;;;;;;;11.33;3.20;;;3.80;99.90;;;;;;5047371;28;20219;-84
2023/03/28 08:22:41;;;;;;;7.10;1.90;;;3.90;99.90;;;;;;5032751;28;20187;-83
2023/03/28 08:25:08;;;;;;;3.50;1.70;;;3.90;99.90;;;;;;5047767;28;20170;-83
2023/03/28 08:27:33;;;;;;;4.50;2.00;;;4.10;99.90;;;;;;5032432;28;20172;-83
2023/03/28 08:29:59;;;;;;;4.63;1.40;;;4.10;99.90;;;;;;5047201;28;20199;-83
2023/03/28 08:32:25;;;;;;;6.03;1.90;;;4.30;99.90;;;;;;5047850;28;20225;-82
2023/03/28 08:34:51;;;;;;;6.97;1.93;;;4.50;99.90;;;;;;5047609;28;20205;-83
2023/03/28 08:37:17;;;;;;;6.23;1.50;;;4.50;99.90;;;;;;5047520;28;20228;-83
2023/03/28 08:39:43;;;;;;;4.27;1.90;;;4.50;99.90;;;;;;5031845;28;20200;-83
2023/03/28 08:42:40;;;;;;;11.13;1.77;;;4.50;99.90;;;;;;5046440;28;20203;-83
2023/03/28 08:45:40;;;;;;;4.87;1.60;;;4.60;99.90;;;;;;5032473;28;20259;-82
2023/03/28 08:48:18;;;;;;;6.03;1.40;;;4.40;99.90;;;;;;5012825;28;20228;-82
2023/03/28 08:51:17;;;;;;;5.90;1.60;;;4.60;99.90;;;;;;5028980;28;20180;-82
2023/03/28 08:53:50;;;;;;;7.53;1.57;;;4.90;99.90;;;;;;5098365;23;20213;-83
2023/03/28 08:56:16;;;;;;;7.40;1.90;;;5.00;97.70;;;;;;5053430;28;20176;-84
2023/03/28 08:59:00;;;;;;;3.30;1.30;;;4.80;99.70;;;;;;5052783;28;20341;-83
2023/03/28 09:01:28;;;;;;;5.93;1.37;;;4.60;96.80;;;;;;5044219;28;20598;-82
2023/03/28 09:03:53;;;;;;;5.53;1.73;;;4.40;97.80;;;;;;5049483;28;20689;-85
2023/03/28 09:06:28;;;;;;;3.77;1.40;;;4.30;99.90;;;;;;5053571;28;20168;-84
2023/03/28 09:09:03;;;;;;;4.50;1.30;;;4.50;99.90;;;;;;5055906;28;20172;-82
2023/03/28 09:11:37;;;;;;;5.90;1.43;;;4.90;98.80;;;;;;5053425;28;20172;-83
2023/03/28 09:14:28;;;;;;;3.83;1.47;;;5.30;91.90;;;;;;5054120;28;20193;-83
2023/03/28 09:17:18;;;;;;;4.77;1.43;;;5.70;94.70;;;;;;5054700;28;20207;-83
2023/03/28 09:20:22;;;;;;;9.33;1.70;;;5.60;90.20;;;;;;5056858;28;20200;-83
2023/03/28 09:23:01;;;;;;;4.50;1.37;;;5.10;90.90;;;;;;4979245;28;20246;-83
2023/03/28 09:26:02;;;;;;;3.67;1.23;;;4.70;97.00;;;;;;4990450;28;20180;-85
2023/03/28 09:28:39;;;;;;;6.23;2.10;;;4.60;97.80;;;;;;5051019;28;20192;-83
2023/03/28 09:31:08;;;;;;;4.83;1.53;;;4.80;95.40;;;;;;5051110;28;20199;-83
2023/03/28 09:33:39;;;;;;;8.80;1.80;;;5.30;95.10;;;;;;5050866;28;20198;-83
2023/03/28 09:36:12;;;;;;;5.50;2.03;;;5.90;94.50;;;;;;5051574;28;20264;-83
2023/03/28 09:38:51;;;;;;;4.53;1.60;;;6.30;89.50;;;;;;5052876;28;20208;-83
2023/03/28 09:41:25;;;;;;;4.23;1.40;;;6.50;82.70;;;;;;5052121;28;20608;-82
2023/03/28 09:43:55;;;;;;;8.23;1.60;;;6.50;84.80;;;;;;5051007;28;20193;-83
2023/03/28 09:46:42;;;;;;;4.80;2.30;;;6.40;84.20;;;;;;5054880;28;20307;-84
2023/03/28 09:49:18;;;;;;;5.07;2.20;;;6.40;81.90;;;;;;5056332;28;20183;-83
2023/03/28 09:51:45;;;;;;;5.07;1.73;;;6.30;83.10;;;;;;5054274;28;20182;-82
2023/03/28 09:54:11;;;;;;;8.20;1.90;;;6.70;84.30;;;;;;5054158;28;20228;-83
2023/03/28 09:56:43;;;;;;;4.83;2.13;;;6.80;75.90;;;;;;5054845;28;20212;-83
2023/03/28 09:59:27;;;;;;;3.63;1.80;;;7.00;77.40;;;;;;5055712;28;20201;-82
2023/03/28 10:01:55;;;;;;;2.47;1.50;;;7.30;77.50;;;;;;5055079;28;20178;-83
2023/03/28 10:04:27;;;;;;;5.90;2.30;;;7.30;72.20;;;;;;5054159;28;20631;-83
2023/03/28 10:07:15;;;;;;;3.63;1.40;;;7.30;71.10;;;;;;5055318;28;20220;-83
2023/03/28 10:09:53;;;;;;;5.33;2.20;;;7.00;61.30;;;;;;5054801;28;20179;-83
2023/03/28 10:12:26;;;;;;;5.43;1.70;;;7.00;62.80;;;;;;5055666;28;20613;-82
2023/03/28 10:14:51;;;;;;;10.30;2.33;;;7.10;57.00;;;;;;5055761;28;20184;-84
2023/03/28 10:17:28;;;;;;;2.27;1.50;;;7.40;61.10;;;;;;5053927;28;20181;-80
2023/03/28 10:20:21;;;;;;;4.90;2.03;;;7.80;61.70;;;;;;5047216;28;20228;-81
2023/03/28 10:22:50;;;;;;;6.23;3.50;;;7.50;57.00;;;;;;5054399;28;20213;-81
2023/03/28 10:25:20;;;;;;;5.10;3.07;;;6.90;59.10;;;;;;5053811;28;20642;-78
2023/03/28 10:27:46;;;;;;;6.60;2.13;;;6.30;65.80;;;;;;5053704;28;20186;-81
2023/03/28 10:30:25;;;;;;;7.67;3.80;;;6.00;74.30;;;;;;5046560;28;20175;-80
2023/03/28 10:33:23;;;;;;;5.40;2.30;;;6.00;74.20;;;;;;5053596;28;20190;-81
2023/03/28 10:36:23;;;;;;;4.57;1.50;;;5.90;68.80;;;;;;5053813;28;20649;-82
2023/03/28 10:38:49;;;;;;;4.30;1.50;;;6.00;66.60;;;;;;5035250;28;20346;-82
2023/03/28 10:41:26;;;;;;;5.00;2.03;;;6.00;71.00;;;;;;5052033;28;20211;-81
2023/03/28 10:43:52;;;;;;;5.03;1.80;;;6.10;81.10;;;;;;5054090;28;20755;-81
2023/03/28 10:46:34;;;;;;;3.90;1.77;;;6.60;81.20;;;;;;5054211;28;20236;-82
2023/03/28 10:49:15;;;;;;;4.20;1.40;;;6.90;80.10;;;;;;5055317;28;20320;-82
2023/03/28 10:51:42;;;;;;;2.47;1.40;;;7.60;99.90;;;;;;5054825;28;20187;-80
2023/03/28 10:54:19;;;;;;;5.07;1.60;;;9.10;99.90;;;;;;5054207;28;20197;-84
2023/03/28 10:56:54;;;;;;;5.03;2.97;;;9.80;63.90;;;;;;5055384;28;20562;-83
2023/03/28 11:00:11;;;;;;;4.60;1.43;;;9.20;46.10;;;;;;5053912;28;20205;-83
2023/03/28 11:03:05;;;;;;;5.00;1.80;;;8.30;27.50;;;;;;5039025;28;20209;-83
2023/03/28 11:05:58;;;;;;;3.77;2.00;;;7.70;30.00;;;;;;5054063;28;20253;-83
2023/03/28 11:08:46;;;;;;;5.37;1.30;;;8.20;45.00;;;;;;5056255;28;20196;-84
2023/03/28 11:11:18;;;;;;;4.97;1.90;;;8.30;31.10;;;;;;5054967;28;20185;-83
2023/03/28 11:14:02;;;;;;;4.03;1.90;;;8.60;39.40;;;;;;5055911;28;20202;-82
2023/03/28 11:16:37;;;;;;;8.87;2.80;;;8.20;26.00;;;;;;5054480;28;20274;-83
2023/03/28 11:19:38;;;;;;;3.90;1.60;;;7.60;32.60;;;;;;5054018;28;20307;-83
2023/03/28 11:22:22;;;;;;;3.90;1.80;;;7.10;34.80;;;;;;5031200;28;20212;-83
2023/03/28 11:25:17;;;;;;;4.47;1.77;;;7.70;44.60;;;;;;5048615;28;20161;-82
2023/03/28 11:28:16;;;;;;;3.37;1.40;;;8.10;36.10;;;;;;5055966;28;20172;-82
2023/03/28 11:30:45;;;;;;;2.60;1.50;;;7.70;36.40;;;;;;5024249;28;20280;-84
2023/03/28 11:33:19;;;;;;;4.53;1.60;;;8.30;38.50;;;;;;5054701;28;20220;-83
2023/03/28 11:35:53;;;;;;;4.00;1.70;;;8.60;36.70;;;;;;5055037;28;20177;-83
2023/03/28 11:38:49;;;;;;;4.60;1.53;;;8.80;42.30;;;;;;5055424;28;20202;-83
2023/03/28 11:41:17;;;;;;;4.70;1.50;;;9.20;39.60;;;;;;5054709;28;20198;-83
2023/03/28 11:43:49;;;;;;;2.73;1.70;;;8.60;35.80;;;;;;5055502;28;20193;-83
2023/03/28 11:46:36;;;;;;;5.93;1.87;;;8.40;33.30;;;;;;5056976;28;20170;-83
2023/03/28 11:49:25;;;;;;;4.07;2.17;;;8.20;30.00;;;;;;5057087;28;20240;-84
2023/03/28 11:52:15;;;;;;;3.80;2.00;;;8.00;40.80;;;;;;5054805;28;20258;-84
2023/03/28 11:54:48;;;;;;;5.53;2.17;;;8.30;41.10;;;;;;5055822;28;20596;-83
2023/03/28 11:57:43;;;;;;;3.97;1.73;;;8.30;29.20;;;;;;5055936;28;20596;-83
2023/03/28 12:00:48;;;;;;;4.07;1.50;;;8.80;28.20;;;;;;5049207;28;20185;-84
2023/03/28 12:03:19;;;;;;;3.50;1.80;;;9.00;32.70;;;;;;5009719;28;20198;-83
2023/03/28 12:05:53;;;;;;;4.60;1.63;;;8.80;34.80;;;;;;5056865;28;20248;-83
2023/03/28 12:08:31;;;;;;;5.80;1.80;;;8.40;34.60;;;;;;5056359;28;20527;-83
2023/03/28 12:11:03;;;;;;;4.93;1.50;;;8.30;38.00;;;;;;5055926;28;20181;-84
2023/03/28 12:13:31;;;;;;;4.00;1.60;;;8.30;34.80;;;;;;5057570;28;20193;-84
2023/03/28 12:16:11;;;;;;;2.83;1.43;;;8.50;37.00;;;;;;5057932;28;20302;-83
2023/03/28 12:19:00;;;;;;;5.00;1.90;;;8.70;41.20;;;;;;5058398;28;20230;-83
2023/03/28 12:21:42;;;;;;;3.50;1.70;;;9.00;37.00;;;;;;5056138;28;20182;-83
2023/03/28 12:24:25;;;;;;;2.83;1.70;;;9.20;29.80;;;;;;5043385;28;20170;-82
2023/03/28 12:27:27;;;;;;;4.90;2.83;;;9.00;29.70;;;;;;5042454;28;20171;-83
2023/03/28 12:30:21;;;;;;;5.03;2.00;;;8.90;34.50;;;;;;5031080;28;20230;-83
2023/03/28 12:33:00;;;;;;;3.65;1.80;;;9.20;28.50;;;;;;5002957;28;20417;-82
2023/03/28 12:35:37;;;;;;;3.47;1.50;;;9.50;26.10;;;;;;5032944;28;20183;-83
2023/03/28 12:38:33;;;;;;;2.77;1.50;;;9.60;20.40;;;;;;5031762;28;20264;-83
2023/03/28 12:41:02;;;;;;;3.10;1.50;;;9.30;28.60;;;;;;5030687;28;20175;-82
2023/03/28 12:43:34;;;;;;;5.67;1.37;;;9.10;24.00;;;;;;5031755;28;20199;-82
2023/03/28 12:46:02;;;;;;;1.90;1.33;;;9.10;25.00;;;;;;5032949;28;20203;-83
2023/03/28 12:49:00;;;;;;;3.07;1.83;;;8.90;21.80;;;;;;5031427;28;20546;-83
2023/03/28 12:51:50;;;;;;;3.03;1.50;;;8.70;26.40;;;;;;5032505;28;20873;-83
2023/03/28 12:54:15;;;;;;;3.47;1.43;;;8.70;21.40;;;;;;5043882;28;20190;-83
2023/03/28 12:56:46;;;;;;;6.17;1.70;;;8.80;23.70;;;;;;5052657;28;20246;-83
2023/03/28 12:59:49;;;;;;;2.53;1.93;;;9.00;22.50;;;;;;5052432;28;20214;-83
2023/03/28 13:02:18;;;;;;;5.47;2.10;;;9.10;23.60;;;;;;5043032;28;20186;-83
2023/03/28 13:04:57;;;;;;;4.10;1.70;;;9.20;22.70;;;;;;5052969;28;20164;-83
2023/03/28 13:07:33;;;;;;;6.03;3.30;;;9.20;18.70;;;;;;5051431;28;20257;-83
2023/03/28 13:10:05;;;;;;;5.50;1.70;;;9.50;21.90;;;;;;5050746;28;20175;-83
2023/03/28 13:13:05;;;;;;;7.07;2.83;;;10.20;22.00;;;;;;5051217;28;20200;-82
2023/03/28 13:15:32;;;;;;;3.20;1.67;;;10.50;15.10;;;;;;5052171;28;20260;-83
2023/03/28 13:18:16;;;;;;;4.57;2.20;;;10.30;11.80;;;;;;5052660;28;20710;-83
2023/03/28 13:20:47;;;;;;;2.97;1.70;;;10.00;13.30;;;;;;5052146;28;20657;-84
2023/03/28 13:23:15;;;;;;;5.33;2.37;;;9.80;18.30;;;;;;5055279;28;20232;-83
2023/03/28 13:25:51;;;;;;;4.67;1.70;;;9.70;19.00;;;;;;5056573;28;20201;-83
2023/03/28 13:28:16;;;;;;;4.90;1.90;;;9.70;20.50;;;;;;5056212;28;20172;-80